createdAt,value
2018-06-21T00:00:23.669Z,77.21
2018-06-21T00:02:51.806Z,77.63
2018-06-21T00:05:20.257Z,77.23
2018-06-21T00:07:48.425Z,77.43
2018-06-21T00:10:16.557Z,77.70
2018-06-21T00:12:44.710Z,78.17
2018-06-21T00:15:12.821Z,78.12
2018-06-21T00:17:41.433Z,78.20
2018-06-21T00:20:09.554Z,77.67
2018-06-21T00:22:38.005Z,77.48
2018-06-21T00:25:06.174Z,77.74
2018-06-21T00:27:34.647Z,77.64
2018-06-21T00:30:03.098Z,78.22
2018-06-21T00:32:31.566Z,78.25
2018-06-21T00:35:00.044Z,78.33
2018-06-21T00:37:28.365Z,79.23
2018-06-21T00:39:56.831Z,78.90
2018-06-21T00:42:25.165Z,78.66
2018-06-21T00:44:53.661Z,79.52
2018-06-21T00:47:22.341Z,79.97
2018-06-21T00:49:50.478Z,81.00
2018-06-21T00:52:19.264Z,80.91
2018-06-21T00:54:47.631Z,80.23
2018-06-21T00:57:15.772Z,79.99
2018-06-21T00:59:43.895Z,80.92
2018-06-21T01:02:12.598Z,80.49
2018-06-21T01:04:41.057Z,80.31
2018-06-21T01:07:09.518Z,80.83
2018-06-21T01:09:37.674Z,81.22
2018-06-21T01:12:06.077Z,81.39
2018-06-21T01:14:34.538Z,81.87
2018-06-21T01:17:03.087Z,81.85
2018-06-21T01:19:31.567Z,81.69
2018-06-21T01:22:00.042Z,80.85
2018-06-21T01:24:28.504Z,80.82
2018-06-21T01:26:56.965Z,80.92
2018-06-21T01:29:25.449Z,80.87
2018-06-21T01:31:53.589Z,81.07
2018-06-21T01:34:21.749Z,80.77
2018-06-21T01:36:50.233Z,81.62
2018-06-21T01:39:18.742Z,81.98
2018-06-21T01:41:46.857Z,82.04
2018-06-21T01:44:15.365Z,81.75
2018-06-21T01:46:43.493Z,81.24
2018-06-21T01:49:11.960Z,81.70
2018-06-21T01:51:40.098Z,81.97
2018-06-21T01:54:08.241Z,81.27
2018-06-21T01:56:36.365Z,81.01
2018-06-21T01:59:05.043Z,81.21
2018-06-21T02:01:33.173Z,81.34
2018-06-21T02:04:01.314Z,82.09
2018-06-21T02:06:29.451Z,81.46
2018-06-21T02:08:57.597Z,81.29
2018-06-21T02:11:25.739Z,81.58
2018-06-21T02:13:53.882Z,81.64
2018-06-21T02:16:22.033Z,82.23
2018-06-21T02:18:50.518Z,82.08
2018-06-21T02:21:18.662Z,82.12
2018-06-21T02:23:46.833Z,82.53
2018-06-21T02:26:14.974Z,82.84
2018-06-21T02:28:43.456Z,82.68
2018-06-21T02:31:11.590Z,82.91
2018-06-21T02:33:39.753Z,83.99
2018-06-21T02:36:07.902Z,83.76
2018-06-21T02:38:36.230Z,84.70
2018-06-21T02:41:04.897Z,84.97
2018-06-21T02:43:33.061Z,84.87
2018-06-21T02:46:01.193Z,85.33
2018-06-21T02:48:29.553Z,85.63
2018-06-21T02:50:57.662Z,84.97
2018-06-21T02:53:25.822Z,85.10
2018-06-21T02:55:54.498Z,84.64
2018-06-21T02:58:22.906Z,85.15
2018-06-21T03:00:51.133Z,84.95
2018-06-21T03:03:19.594Z,85.58
2018-06-21T03:05:48.084Z,85.55
2018-06-21T03:08:16.554Z,85.46
2018-06-21T03:10:45.079Z,85.98
2018-06-21T03:13:13.534Z,85.90
2018-06-21T03:15:42.038Z,86.60
2018-06-21T03:18:10.498Z,86.23
2018-06-21T03:20:38.642Z,86.01
2018-06-21T03:23:07.106Z,85.98
2018-06-21T03:25:35.577Z,86.34
2018-06-21T03:28:04.061Z,86.47
2018-06-21T03:30:32.210Z,86.28
2018-06-21T03:33:00.869Z,86.48
2018-06-21T03:35:29.012Z,86.95
2018-06-21T03:37:57.355Z,86.65
2018-06-21T03:40:25.513Z,86.50
2018-06-21T03:42:53.971Z,86.27
2018-06-21T03:45:22.090Z,86.13
2018-06-21T03:47:50.470Z,85.96
2018-06-21T03:50:18.969Z,86.25
2018-06-21T03:52:47.423Z,86.35
2018-06-21T03:55:15.594Z,86.04
2018-06-21T03:57:43.737Z,86.62
2018-06-21T04:00:12.210Z,86.22
2018-06-21T04:02:40.618Z,86.02
2018-06-21T04:05:09.124Z,86.30
2018-06-21T04:07:37.253Z,86.07
2018-06-21T04:10:05.430Z,86.26
2018-06-21T04:12:33.941Z,87.05
2018-06-21T04:15:02.094Z,86.74
2018-06-21T04:17:30.760Z,87.25
2018-06-21T04:19:59.721Z,87.20
2018-06-21T04:22:28.205Z,87.24
2018-06-21T04:24:56.650Z,86.77
2018-06-21T04:27:24.771Z,87.14
2018-06-21T04:29:53.237Z,87.70
2018-06-21T04:32:21.708Z,87.72
2018-06-21T04:34:50.017Z,87.76
2018-06-21T04:37:18.143Z,87.74
2018-06-21T04:39:47.046Z,87.11
2018-06-21T04:42:15.493Z,87.42
2018-06-21T04:44:43.666Z,87.12
2018-06-21T04:47:12.307Z,87.51
2018-06-21T04:49:40.770Z,87.24
2018-06-21T04:52:08.894Z,87.57
2018-06-21T04:54:37.025Z,87.24
2018-06-21T04:57:05.697Z,87.18
2018-06-21T04:59:34.009Z,87.76
2018-06-21T05:02:02.154Z,88.09
2018-06-21T05:04:30.585Z,87.87
2018-06-21T05:06:59.302Z,88.46
2018-06-21T05:09:27.669Z,88.64
2018-06-21T05:11:55.785Z,88.48
2018-06-21T05:14:23.941Z,89.13
2018-06-21T05:16:52.067Z,89.40
2018-06-21T05:19:20.201Z,89.84
2018-06-21T05:21:48.341Z,89.83
2018-06-21T05:24:16.459Z,90.04
2018-06-21T05:26:44.916Z,90.07
2018-06-21T05:29:13.502Z,90.74
2018-06-21T05:31:41.625Z,92.01
2018-06-21T05:34:09.750Z,92.82
2018-06-21T05:36:38.214Z,93.49
2018-06-21T05:39:08.857Z,94.07
2018-06-21T05:41:37.318Z,94.96
2018-06-21T05:44:05.661Z,95.15
2018-06-21T05:46:34.240Z,95.77
2018-06-21T05:49:02.569Z,96.14
2018-06-21T05:51:31.088Z,96.46
2018-06-21T05:53:59.214Z,95.65
2018-06-21T05:56:27.331Z,96.15
2018-06-21T05:58:55.996Z,96.68
2018-06-21T06:01:24.133Z,96.25
2018-06-21T06:03:52.757Z,95.91
2018-06-21T06:06:21.270Z,95.82
2018-06-21T06:08:49.664Z,94.95
2018-06-21T06:11:17.977Z,93.96
2018-06-21T06:13:46.103Z,93.07
2018-06-21T06:16:14.573Z,93.81
2018-06-21T06:18:43.041Z,93.53
2018-06-21T06:21:11.714Z,93.15
2018-06-21T06:23:40.074Z,93.46
2018-06-21T06:26:08.406Z,92.35
2018-06-21T06:28:36.870Z,92.20
2018-06-21T06:31:05.501Z,91.68
2018-06-21T06:33:33.833Z,93.08
2018-06-21T06:36:02.305Z,93.04
2018-06-21T06:38:30.761Z,93.44
2018-06-21T06:40:58.868Z,93.14
2018-06-21T06:43:27.331Z,93.80
2018-06-21T06:45:55.882Z,92.64
2018-06-21T06:48:24.081Z,91.38
2018-06-21T06:50:52.525Z,90.28
2018-06-21T06:53:20.987Z,91.14
2018-06-21T06:55:49.152Z,90.00
2018-06-21T06:58:17.294Z,90.89
2018-06-21T07:00:45.750Z,91.77
2018-06-21T07:03:13.868Z,92.09
2018-06-21T07:05:41.981Z,92.14
2018-06-21T07:08:10.172Z,92.29
2018-06-21T07:10:38.805Z,91.62
2018-06-21T07:13:07.366Z,91.50
2018-06-21T07:15:35.816Z,91.57
2018-06-21T07:18:04.286Z,92.16
2018-06-21T07:20:32.461Z,91.57
2018-06-21T07:23:01.049Z,92.45
2018-06-21T07:25:29.433Z,92.44
2018-06-21T07:27:57.562Z,92.78
2018-06-21T07:30:26.014Z,92.91
2018-06-21T07:32:54.557Z,93.03
2018-06-21T07:35:22.658Z,93.46
2018-06-21T07:37:51.098Z,93.54
2018-06-21T07:40:19.229Z,93.65
2018-06-21T07:42:47.355Z,93.44
2018-06-21T07:45:15.813Z,92.76
2018-06-21T07:47:43.946Z,92.36
2018-06-21T07:50:12.395Z,94.13
2018-06-21T07:52:40.514Z,92.90
2018-06-21T07:55:08.625Z,91.76
2018-06-21T07:57:36.757Z,90.43
2018-06-21T08:00:05.133Z,89.84
2018-06-21T08:02:33.273Z,87.36
2018-06-21T08:05:01.739Z,86.34
2018-06-21T08:07:30.058Z,86.50
2018-06-21T08:09:58.190Z,87.35
2018-06-21T08:12:26.316Z,86.26
2018-06-21T08:14:54.693Z,86.99
2018-06-21T08:17:23.134Z,86.14
2018-06-21T08:19:51.266Z,83.85
2018-06-21T08:22:19.389Z,84.34
2018-06-21T08:24:47.536Z,81.41
2018-06-21T08:27:15.866Z,80.05
2018-06-21T08:29:43.994Z,80.47
2018-06-21T08:32:12.165Z,79.18
2018-06-21T08:34:40.458Z,79.31
2018-06-21T08:37:08.570Z,80.56
2018-06-21T08:39:36.897Z,74.61
2018-06-21T08:42:05.042Z,74.80
2018-06-21T08:44:33.710Z,74.78
2018-06-21T08:47:01.862Z,74.50
2018-06-21T08:49:30.014Z,75.16
2018-06-21T08:51:58.517Z,74.82
2018-06-21T08:54:26.825Z,74.50
2018-06-21T08:56:55.287Z,75.17
2018-06-21T08:59:23.434Z,75.68
2018-06-21T09:01:51.893Z,77.46
2018-06-21T09:04:20.033Z,76.98
2018-06-21T09:06:48.154Z,76.76
2018-06-21T09:09:16.301Z,76.96
2018-06-21T09:11:44.425Z,77.39
2018-06-21T09:14:12.566Z,75.90
2018-06-21T09:16:40.910Z,75.79
2018-06-21T09:19:09.384Z,75.15
2018-06-21T09:21:37.709Z,74.41
2018-06-21T09:24:06.230Z,74.00
2018-06-21T09:26:34.697Z,72.98
2018-06-21T09:29:02.845Z,71.87
2018-06-21T09:31:30.973Z,73.64
2018-06-21T09:33:59.105Z,73.42
2018-06-21T09:36:29.729Z,74.69
2018-06-21T09:39:03.645Z,72.73
2018-06-21T09:41:37.217Z,72.74
2018-06-21T09:44:41.950Z,73.51
2018-06-21T09:47:15.737Z,73.98
2018-06-21T09:49:44.222Z,74.64
2018-06-21T09:52:12.352Z,74.44
2018-06-21T09:54:40.817Z,74.18
2018-06-21T09:57:09.273Z,75.38
2018-06-21T09:59:37.427Z,75.21
2018-06-21T10:02:06.098Z,73.69
2018-06-21T10:04:34.242Z,72.75
2018-06-21T10:07:02.377Z,73.42
2018-06-21T10:09:30.927Z,71.30
2018-06-21T10:11:59.377Z,66.63
2018-06-21T10:14:27.576Z,69.18
2018-06-21T10:16:55.697Z,71.72
2018-06-21T10:19:24.186Z,76.48
2018-06-21T10:21:52.361Z,79.44
2018-06-21T10:24:20.475Z,81.40
2018-06-21T10:26:48.634Z,82.13
2018-06-21T10:29:17.270Z,82.94
2018-06-21T10:31:45.998Z,83.57
2018-06-21T10:34:14.145Z,84.00
2018-06-21T10:36:42.294Z,85.36
2018-06-21T10:39:11.880Z,83.98
2018-06-21T10:41:40.473Z,82.20
2018-06-21T10:44:08.956Z,78.37
2018-06-21T10:46:37.233Z,78.69
2018-06-21T10:49:05.405Z,79.34
2018-06-21T10:51:34.094Z,74.97
2018-06-21T10:54:02.662Z,73.22
2018-06-21T10:56:31.137Z,71.98
2018-06-21T10:58:59.309Z,72.06
2018-06-21T11:01:27.789Z,71.08
2018-06-21T11:03:56.329Z,70.04
2018-06-21T11:06:25.189Z,69.14
2018-06-21T11:08:53.662Z,64.11
2018-06-21T11:11:22.439Z,59.27
2018-06-21T11:13:50.706Z,58.88
2018-06-21T11:16:18.840Z,59.00
2018-06-21T11:18:47.041Z,57.94
2018-06-21T11:21:15.542Z,57.25
2018-06-21T11:23:44.001Z,56.50
2018-06-21T11:26:12.520Z,57.81
2018-06-21T11:28:40.985Z,55.07
2018-06-21T11:31:09.118Z,54.98
2018-06-21T11:33:37.249Z,54.33
2018-06-21T11:36:05.546Z,53.74
2018-06-21T11:38:34.006Z,54.23
2018-06-21T11:41:02.481Z,53.57
2018-06-21T11:43:30.938Z,53.46
2018-06-21T11:45:59.421Z,53.90
2018-06-21T11:48:27.581Z,52.70
2018-06-21T11:50:55.793Z,54.84
2018-06-21T11:53:24.477Z,54.41
2018-06-21T11:55:52.620Z,55.77
2018-06-21T11:58:20.770Z,57.78
2018-06-21T12:00:49.232Z,56.95
2018-06-21T12:03:17.497Z,56.84
2018-06-21T12:05:46.446Z,59.39
2018-06-21T12:08:14.598Z,56.59
2018-06-21T12:10:43.085Z,57.22
2018-06-21T12:13:11.765Z,58.44
2018-06-21T12:15:39.946Z,60.38
2018-06-21T12:18:08.417Z,63.78
2018-06-21T12:20:36.538Z,66.94
2018-06-21T12:23:04.718Z,70.45
2018-06-21T12:25:33.450Z,71.75
2018-06-21T12:28:01.934Z,73.67
2018-06-21T12:30:30.077Z,73.67
2018-06-21T12:32:58.614Z,68.59
2018-06-21T12:35:27.166Z,64.84
2018-06-21T12:37:56.638Z,62.38
2018-06-21T12:40:25.330Z,61.39
2018-06-21T12:42:53.814Z,59.48
2018-06-21T12:45:22.018Z,60.71
2018-06-21T12:47:50.338Z,61.13
2018-06-21T12:50:19.053Z,63.40
2018-06-21T12:52:47.397Z,59.82
2018-06-21T12:55:15.850Z,59.33
2018-06-21T12:57:44.209Z,59.74
2018-06-21T13:00:12.641Z,58.68
2018-06-21T13:02:40.866Z,59.09
2018-06-21T13:05:09.007Z,60.49
2018-06-21T13:07:37.144Z,60.54
2018-06-21T13:10:16.762Z,62.03
2018-06-21T13:13:01.734Z,58.67
2018-06-21T13:15:29.885Z,58.40
2018-06-21T13:17:58.590Z,57.10
2018-06-21T13:20:27.077Z,59.29
2018-06-21T13:22:55.558Z,56.15
2018-06-21T13:25:23.714Z,56.22
2018-06-21T13:27:51.856Z,55.18
2018-06-21T13:30:20.730Z,56.63
2018-06-21T13:32:48.902Z,55.19
2018-06-21T13:35:17.369Z,55.51
2018-06-21T13:37:45.505Z,55.54
2018-06-21T13:40:13.953Z,54.24
2018-06-21T13:42:42.807Z,54.51
2018-06-21T13:45:11.254Z,53.53
2018-06-21T13:47:39.733Z,55.16
2018-06-21T13:50:08.442Z,55.67
2018-06-21T13:52:36.594Z,57.29
2018-06-21T13:55:05.047Z,56.29
2018-06-21T13:57:33.206Z,56.64
2018-06-21T14:00:01.319Z,55.66
2018-06-21T14:02:29.466Z,54.88
2018-06-21T14:04:57.929Z,55.19
2018-06-21T14:07:26.628Z,54.76
2018-06-21T14:09:54.937Z,55.10
2018-06-21T14:12:23.432Z,55.49
2018-06-21T14:14:51.917Z,54.90
2018-06-21T14:17:20.570Z,55.10
2018-06-21T14:19:49.030Z,54.95
2018-06-21T14:22:17.177Z,55.04
2018-06-21T14:24:45.337Z,55.39
2018-06-21T14:27:13.487Z,57.11
2018-06-21T14:29:41.646Z,55.19
2018-06-21T14:32:09.789Z,55.67
2018-06-21T14:34:38.241Z,56.61
2018-06-21T14:37:06.438Z,55.24
2018-06-21T14:39:34.902Z,54.15
2018-06-21T14:42:03.079Z,53.39
2018-06-21T14:44:31.210Z,53.29
2018-06-21T14:46:59.698Z,55.47
2018-06-21T14:49:27.854Z,55.70
2018-06-21T14:51:56.329Z,56.70
2018-06-21T14:54:24.488Z,60.26
2018-06-21T14:56:53.350Z,62.25
2018-06-21T14:59:23.222Z,65.16
2018-06-21T15:01:53.494Z,69.54
2018-06-21T15:04:24.301Z,70.92
2018-06-21T15:06:52.775Z,71.56
2018-06-21T15:09:21.266Z,71.21
2018-06-21T15:11:49.730Z,71.17
2018-06-21T15:14:18.066Z,70.59
2018-06-21T15:16:46.214Z,68.73
2018-06-21T15:19:14.706Z,66.67
2018-06-21T15:21:43.070Z,66.18
2018-06-21T15:24:11.214Z,66.46
2018-06-21T15:26:39.682Z,68.38
2018-06-21T15:29:08.218Z,66.80
2018-06-21T15:31:36.497Z,66.36
2018-06-21T15:34:04.645Z,64.95
2018-06-21T15:36:33.351Z,64.76
2018-06-21T15:39:07.067Z,65.80
2018-06-21T15:41:35.558Z,63.77
2018-06-21T15:44:03.952Z,65.46
2018-06-21T15:46:32.473Z,66.46
2018-06-21T15:49:00.947Z,66.76
2018-06-21T15:51:29.422Z,67.84
2018-06-21T15:53:57.765Z,67.74
2018-06-21T15:56:26.221Z,68.50
2018-06-21T15:58:54.402Z,67.03
2018-06-21T16:01:22.870Z,67.70
2018-06-21T16:03:51.530Z,68.71
2018-06-21T16:06:19.677Z,69.03
2018-06-21T16:08:48.318Z,69.48
2018-06-21T16:11:16.633Z,69.92
2018-06-21T16:13:45.107Z,69.07
2018-06-21T16:16:13.582Z,69.10
2018-06-21T16:18:41.754Z,68.93
2018-06-21T16:21:09.918Z,68.89
2018-06-21T16:23:38.756Z,68.03
2018-06-21T16:26:07.250Z,67.60
2018-06-21T16:28:35.768Z,66.12
2018-06-21T16:31:03.982Z,65.79
2018-06-21T16:33:32.192Z,64.51
2018-06-21T16:36:00.498Z,61.61
2018-06-21T16:38:28.642Z,64.37
2018-06-21T16:40:57.202Z,65.39
2018-06-21T16:43:25.613Z,66.23
2018-06-21T16:45:54.070Z,65.53
2018-06-21T16:48:22.567Z,65.83
2018-06-21T16:50:50.703Z,66.76
2018-06-21T16:53:19.026Z,66.43
2018-06-21T16:55:47.498Z,66.66
2018-06-21T16:58:15.845Z,66.14
2018-06-21T17:00:44.085Z,66.68
2018-06-21T17:03:12.607Z,64.55
2018-06-21T17:05:40.735Z,61.84
2018-06-21T17:08:09.406Z,62.61
2018-06-21T17:10:37.866Z,63.60
2018-06-21T17:13:05.994Z,64.69
2018-06-21T17:15:34.538Z,65.40
2018-06-21T17:18:02.666Z,66.20
2018-06-21T17:20:31.169Z,65.64
2018-06-21T17:22:59.630Z,66.05
2018-06-21T17:25:27.739Z,66.49
2018-06-21T17:27:56.197Z,66.29
2018-06-21T17:30:24.772Z,64.67
2018-06-21T17:32:53.321Z,64.91
2018-06-21T17:35:21.842Z,62.92
2018-06-21T17:37:49.973Z,62.79
2018-06-21T17:40:18.295Z,63.14
2018-06-21T17:42:46.401Z,62.41
2018-06-21T17:45:14.951Z,60.94
2018-06-21T17:47:43.266Z,60.73
2018-06-21T17:50:11.701Z,60.57
2018-06-21T17:52:39.833Z,60.80
2018-06-21T17:55:07.987Z,59.96
2018-06-21T17:57:36.436Z,60.05
2018-06-21T18:00:05.150Z,60.72
2018-06-21T18:02:33.601Z,60.70
2018-06-21T18:05:01.729Z,60.51
2018-06-21T18:07:29.934Z,61.79
2018-06-21T18:09:58.609Z,62.00
2018-06-21T18:12:27.039Z,61.60
2018-06-21T18:14:55.357Z,61.11
2018-06-21T18:17:23.929Z,61.46
2018-06-21T18:19:52.621Z,61.19
2018-06-21T18:22:21.101Z,61.90
2018-06-21T18:24:49.648Z,62.47
2018-06-21T18:27:17.785Z,63.33
2018-06-21T18:29:46.240Z,64.35
2018-06-21T18:32:14.685Z,65.62
2018-06-21T18:34:43.141Z,66.31
2018-06-21T18:37:13.186Z,66.63
2018-06-21T18:39:41.653Z,67.54
2018-06-21T18:42:10.102Z,68.82
2018-06-21T18:44:38.617Z,68.66
2018-06-21T18:47:07.181Z,68.80
2018-06-21T18:49:35.905Z,68.83
2018-06-21T18:52:04.414Z,70.10
2018-06-21T18:54:32.571Z,71.89
2018-06-21T18:57:00.750Z,73.36
2018-06-21T18:59:29.065Z,74.33
2018-06-21T19:01:57.293Z,74.99
2018-06-21T19:04:25.446Z,74.84
2018-06-21T19:06:59.230Z,74.69
2018-06-21T19:09:32.709Z,75.31
2018-06-21T19:12:04.135Z,75.01
2018-06-21T19:14:32.444Z,74.10
2018-06-21T19:17:00.562Z,73.83
2018-06-21T19:19:28.753Z,74.54
2018-06-21T19:21:57.053Z,75.04
2018-06-21T19:24:25.365Z,75.19
2018-06-21T19:26:53.837Z,76.41
2018-06-21T19:29:22.305Z,76.21
2018-06-21T19:31:50.418Z,76.05
2018-06-21T19:34:18.897Z,75.80
2018-06-21T19:36:47.609Z,75.31
2018-06-21T19:39:16.286Z,76.03
2018-06-21T19:41:44.746Z,74.80
2018-06-21T19:44:12.850Z,74.96
2018-06-21T19:46:40.970Z,74.26
2018-06-21T19:49:09.288Z,73.86
2018-06-21T19:51:37.545Z,73.63
2018-06-21T19:54:06.214Z,72.67
2018-06-21T19:56:34.869Z,72.51
2018-06-21T19:59:03.558Z,71.74
2018-06-21T20:01:31.717Z,71.97
2018-06-21T20:03:59.849Z,72.49
2018-06-21T20:06:28.314Z,73.00
2018-06-21T20:08:56.427Z,72.97
2018-06-21T20:11:30.969Z,73.10
2018-06-21T20:13:59.622Z,73.76
2018-06-21T20:16:27.945Z,74.56
2018-06-21T20:18:56.393Z,74.55
2018-06-21T20:21:24.709Z,74.99
2018-06-21T20:23:52.861Z,75.65
2018-06-21T20:26:21.677Z,75.51
2018-06-21T20:28:49.782Z,76.33
2018-06-21T20:31:18.734Z,77.81
2018-06-21T20:33:47.681Z,78.52
2018-06-21T20:36:16.517Z,79.00
2018-06-21T20:38:44.968Z,79.38
2018-06-21T20:41:13.217Z,79.48
2018-06-21T20:43:41.367Z,80.04
2018-06-21T20:46:09.502Z,79.85
2018-06-21T20:48:37.649Z,80.25
2018-06-21T20:51:06.257Z,79.38
2018-06-21T20:53:34.394Z,79.78
2018-06-21T20:56:02.846Z,79.19
2018-06-21T20:58:31.193Z,79.58
2018-06-21T21:00:59.560Z,80.08
2018-06-21T21:03:28.013Z,80.23
2018-06-21T21:05:56.457Z,80.06
2018-06-21T21:08:24.851Z,80.46
2018-06-21T21:10:52.975Z,80.47
2018-06-21T21:13:21.130Z,80.89
2018-06-21T21:15:49.597Z,81.32
2018-06-21T21:18:18.135Z,80.84
2018-06-21T21:20:46.793Z,81.45
2018-06-21T21:23:15.051Z,81.68
2018-06-21T21:25:43.681Z,81.75
2018-06-21T21:28:11.816Z,82.15
2018-06-21T21:30:40.277Z,82.85
2018-06-21T21:33:08.396Z,82.88
2018-06-21T21:35:36.742Z,82.93
2018-06-21T21:38:05.440Z,83.16
2018-06-21T21:40:33.549Z,83.44
2018-06-21T21:43:01.850Z,83.93
2018-06-21T21:45:30.289Z,83.63
2018-06-21T21:47:58.397Z,83.59
2018-06-21T21:50:26.802Z,83.94
2018-06-21T21:52:55.099Z,83.37
2018-06-21T21:55:23.201Z,82.85
2018-06-21T21:57:51.677Z,82.78
2018-06-21T22:00:55.549Z,82.89
2018-06-21T22:03:23.896Z,82.95
2018-06-21T22:05:52.358Z,83.27
2018-06-21T22:08:20.729Z,83.17
2018-06-21T22:10:49.645Z,82.88
2018-06-21T22:13:18.746Z,82.42
2018-06-21T22:15:46.995Z,82.54
2018-06-21T22:18:15.643Z,82.73
2018-06-21T22:20:44.106Z,82.83
2018-06-21T22:23:12.254Z,82.72
2018-06-21T22:25:40.578Z,83.03
2018-06-21T22:28:08.742Z,83.34
2018-06-21T22:30:37.221Z,83.46
2018-06-21T22:33:05.731Z,83.47
2018-06-21T22:35:33.836Z,83.48
2018-06-21T22:38:02.301Z,83.37
2018-06-21T22:40:30.402Z,84.22
2018-06-21T22:42:58.521Z,84.47
2018-06-21T22:45:27.205Z,84.47
2018-06-21T22:47:55.994Z,84.17
2018-06-21T22:50:24.100Z,84.13
2018-06-21T22:52:52.574Z,84.29
2018-06-21T22:55:20.706Z,84.81
2018-06-21T22:57:48.818Z,84.66
2018-06-21T23:00:17.601Z,84.94
2018-06-21T23:02:46.389Z,85.11
2018-06-21T23:05:14.725Z,84.22
2018-06-21T23:07:42.834Z,84.55
2018-06-21T23:10:11.466Z,84.32
2018-06-21T23:12:39.564Z,85.14
2018-06-21T23:15:07.686Z,84.83
2018-06-21T23:17:35.812Z,85.41
2018-06-21T23:20:04.385Z,85.22
2018-06-21T23:22:32.830Z,85.32
2018-06-21T23:25:01.526Z,85.48
2018-06-21T23:27:29.762Z,85.36
2018-06-21T23:29:57.858Z,85.71
2018-06-21T23:32:25.982Z,85.67
2018-06-21T23:34:54.098Z,86.23
2018-06-21T23:37:22.225Z,86.37
2018-06-21T23:39:50.342Z,86.32
2018-06-21T23:42:18.490Z,86.68
2018-06-21T23:44:46.589Z,86.43
2018-06-21T23:47:14.705Z,86.91
2018-06-21T23:49:42.809Z,87.01
2018-06-21T23:52:10.953Z,87.53
2018-06-21T23:54:39.394Z,86.95
2018-06-21T23:57:07.745Z,87.63
2018-06-21T23:59:36.401Z,87.38
